Time;durP1;ratioP1;P1;durP2;ratioP2;P2;SDS_P1;SDS_P2;PMS_P1;PMS_P2;Temp;Humidity;BMP_temperature;BMP_pressure;BME280_temperature;BME280_humidity;BME280_pressure;Samples;Min_cycle;Max_cycle;Signal;HPM_P1;HPM_P2
2023/10/03 00:00:38;;;;;;;10.85;4.68;;;;;;;12.22;69.20;100392.94;6104518;23;20536;-89
2023/10/03 00:03:08;;;;;;;9.80;4.70;;;;;;;12.20;69.38;100395.09;6080634;23;20064;-90
2023/10/03 00:05:35;;;;;;;10.98;5.07;;;;;;;12.18;69.16;100396.38;6081214;23;20065;-89
2023/10/03 00:08:05;;;;;;;13.13;4.63;;;;;;;12.13;69.41;100394.47;6081449;23;20057;-90
2023/10/03 00:10:38;;;;;;;8.82;4.70;;;;;;;12.13;69.60;100391.75;6056592;23;20141;-90
2023/10/03 00:13:07;;;;;;;11.07;4.82;;;;;;;12.10;69.57;100390.38;6082334;23;20009;-91
2023/10/03 00:15:32;;;;;;;10.95;4.68;;;;;;;12.11;69.60;100399.28;6083611;23;20010;-91
2023/10/03 00:18:01;;;;;;;8.18;4.57;;;;;;;11.95;69.70;100374.00;6056091;23;20021;-90
2023/10/03 00:20:27;;;;;;;11.43;4.40;;;;;;;11.95;69.70;100376.69;6056862;23;20512;-90
2023/10/03 00:22:53;;;;;;;16.58;4.80;;;;;;;11.98;69.72;100391.59;6057321;23;20014;-90
2023/10/03 00:25:19;;;;;;;9.20;4.53;;;;;;;12.00;70.07;100397.56;6080623;23;20001;-89
2023/10/03 00:27:50;;;;;;;10.45;5.22;;;;;;;11.80;70.14;100398.09;6056751;23;20366;-89
2023/10/03 00:30:19;;;;;;;14.13;5.18;;;;;;;11.78;70.08;100389.44;6057554;23;20010;-91
2023/10/03 00:32:48;;;;;;;9.80;4.60;;;;;;;11.81;70.50;100408.63;6114473;23;20005;-89
2023/10/03 00:35:15;;;;;;;11.75;4.75;;;;;;;11.86;70.50;100419.47;6116157;23;20005;-90
2023/10/03 00:37:43;;;;;;;9.80;4.55;;;;;;;11.77;70.77;100407.50;6164193;23;19997;-91
2023/10/03 00:42:49;;;;;;;12.88;4.50;;;;;;;11.75;70.77;100420.44;6189595;23;20009;-90
2023/10/03 00:45:19;;;;;;;10.63;4.78;;;;;;;11.60;71.00;100398.63;6115944;23;20002;-90
2023/10/03 00:47:54;;;;;;;9.73;4.68;;;;;;;11.63;71.20;100403.56;6141197;23;20001;-90
2023/10/03 00:50:23;;;;;;;14.32;4.35;;;;;;;11.62;71.22;100412.69;6166008;23;20444;-92
2023/10/03 00:53:05;;;;;;;11.95;4.57;;;;;;;11.64;71.21;100406.00;6140461;23;20081;-90
2023/10/03 00:55:32;;;;;;;8.50;4.37;;;;;;;11.48;71.25;100391.50;6163778;23;20060;-90
2023/10/03 01:00:41;;;;;;;7.63;4.57;;;;;;;11.59;71.38;100413.19;6166624;23;20064;-90
2023/10/03 01:03:36;;;;;;;8.10;4.53;;;;;;;11.60;71.48;100415.66;6140748;23;20008;-90
2023/10/03 01:06:09;;;;;;;9.05;4.43;;;;;;;11.52;71.68;100400.72;6142026;23;20044;-88
2023/10/03 01:08:46;;;;;;;7.50;4.15;;;;;;;11.61;71.42;100411.06;6165153;23;20335;-90
2023/10/03 01:11:18;;;;;;;11.32;4.20;;;;;;;11.44;71.66;100393.06;6139431;23;20045;-90
2023/10/03 01:13:54;;;;;;;8.13;4.70;;;;;;;11.61;71.63;100419.97;6143171;23;20003;-90
2023/10/03 01:16:29;;;;;;;11.32;4.80;;;;;;;11.46;71.64;100395.50;6165073;23;20380;-89
2023/10/03 01:18:59;;;;;;;9.80;4.38;;;;;;;11.46;71.45;100400.91;6166371;23;19997;-90
2023/10/03 01:21:25;;;;;;;13.60;4.60;;;;;;;11.50;71.41;100416.31;6138789;23;20012;-90
2023/10/03 01:23:50;;;;;;;8.68;4.32;;;;;;;11.42;71.42;100392.47;6138749;23;20450;-90
2023/10/03 01:26:17;;;;;;;12.18;5.65;;;;;;;11.41;71.52;100390.03;6138974;23;20001;-90
2023/10/03 01:28:43;;;;;;;7.50;4.30;;;;;;;11.57;71.57;100418.03;6163201;23;20028;-90
2023/10/03 01:31:09;;;;;;;13.02;6.07;;;;;;;11.40;71.37;100394.63;6114780;23;20005;-90
2023/10/03 01:33:35;;;;;;;9.95;3.97;;;;;;;11.49;70.99;100400.38;6114232;23;20001;-90
2023/10/03 01:36:01;;;;;;;7.05;4.55;;;;;;;11.48;71.30;100412.25;6138726;23;19996;-89
2023/10/03 01:38:27;;;;;;;9.25;4.63;;;;;;;11.46;71.48;100425.19;6115501;23;20001;-90
2023/10/03 01:40:53;;;;;;;8.68;4.72;;;;;;;11.39;71.50;100417.22;6139289;23;19988;-90
2023/10/03 01:43:19;;;;;;;8.10;4.55;;;;;;;11.22;71.78;100393.00;6139729;23;20008;-90
2023/10/03 01:45:45;;;;;;;14.32;5.20;;;;;;;11.19;72.08;100406.19;6139389;23;20012;-90
2023/10/03 01:48:12;;;;;;;9.60;4.68;;;;;;;11.07;72.18;100393.59;6113971;23;20001;-90
2023/10/03 01:50:38;;;;;;;9.65;4.60;;;;;;;11.02;72.26;100387.31;6163006;23;20033;-90
2023/10/03 01:53:04;;;;;;;7.43;4.45;;;;;;;11.08;72.46;100395.25;6162595;23;20341;-90
2023/10/03 01:55:29;;;;;;;11.10;4.50;;;;;;;11.07;72.42;100395.47;6190558;23;20133;-90
2023/10/03 01:57:55;;;;;;;8.30;4.55;;;;;;;11.23;72.15;100412.72;6190503;23;20016;-91
2023/10/03 02:00:25;;;;;;;10.93;5.15;;;;;;;11.13;72.72;100406.09;6138947;23;20005;-91
2023/10/03 02:02:53;;;;;;;10.18;4.57;;;;;;;11.21;72.37;100409.44;6163559;23;20519;-90
2023/10/03 02:05:23;;;;;;;15.27;4.60;;;;;;;11.13;72.29;100403.38;6140464;23;20000;-90
2023/10/03 02:07:49;;;;;;;11.10;4.68;;;;;;;11.26;71.65;100396.03;6138979;23;20001;-90
2023/10/03 02:10:15;;;;;;;9.48;4.63;;;;;;;11.32;71.56;100395.84;6138837;23;20054;-90
2023/10/03 02:12:48;;;;;;;12.13;4.65;;;;;;;11.41;71.28;100396.22;6138670;23;20012;-90
2023/10/03 02:15:16;;;;;;;12.95;4.50;;;;;;;11.32;71.42;100400.44;6163593;23;20321;-91
2023/10/03 02:17:42;;;;;;;8.95;4.50;;;;;;;11.27;71.83;100394.97;6163667;23;19981;-90
2023/10/03 02:20:16;;;;;;;9.20;4.60;;;;;;;11.30;71.72;100403.38;6138638;23;20008;-89
2023/10/03 02:22:41;;;;;;;10.23;4.70;;;;;;;11.28;71.56;100393.91;6164591;23;20348;-93
2023/10/03 02:25:10;;;;;;;7.65;4.10;;;;;;;11.26;71.52;100394.13;6113624;23;19997;-91
2023/10/03 02:27:36;;;;;;;9.27;4.32;;;;;;;11.13;72.04;100403.38;6140057;23;20001;-90
2023/10/03 02:30:07;;;;;;;7.22;3.95;;;;;;;11.13;72.44;100408.78;6138763;23;20380;-90
2023/10/03 02:32:33;;;;;;;10.02;4.53;;;;;;;11.12;72.46;100409.88;6165238;23;20032;-90
2023/10/03 02:34:59;;;;;;;12.43;4.50;;;;;;;10.94;72.38;100376.97;6188454;23;20381;-91
2023/10/03 02:37:26;;;;;;;7.90;4.15;;;;;;;10.98;72.41;100388.84;6138933;23;20005;-91
2023/10/03 02:39:53;;;;;;;9.48;4.10;;;;;;;11.02;72.29;100398.91;6165332;23;20001;-90
2023/10/03 02:42:19;;;;;;;8.65;3.63;;;;;;;11.11;71.58;100389.34;6163851;23;20068;-91
2023/10/03 02:44:45;;;;;;;7.43;3.90;;;;;;;11.22;71.26;100389.50;6164293;23;19997;-90
2023/10/03 02:47:12;;;;;;;8.60;4.20;;;;;;;11.39;70.66;100392.16;6162640;23;20000;-90
2023/10/03 02:49:37;;;;;;;8.82;3.60;;;;;;;11.41;70.27;100393.53;6189708;23;19981;-90
2023/10/03 02:52:05;;;;;;;7.60;3.35;;;;;;;11.64;69.41;100405.16;6162864;23;19997;-92
2023/10/03 02:54:32;;;;;;;7.75;3.58;;;;;;;11.60;69.65;100406.72;6139801;23;20055;-90
2023/10/03 02:56:58;;;;;;;8.32;4.00;;;;;;;11.36;70.32;100396.16;6137800;23;20175;-90
2023/10/03 02:59:23;;;;;;;7.80;3.42;;;;;;;11.38;70.45;100412.13;6137703;23;20001;-90
2023/10/03 03:01:52;;;;;;;11.52;3.85;;;;;;;11.25;70.54;100389.03;6113607;23;20002;-90
2023/10/03 03:04:23;;;;;;;9.52;4.45;;;;;;;11.08;70.98;100384.47;6115249;23;20008;-90
2023/10/03 03:06:51;;;;;;;7.13;4.03;;;;;;;11.00;71.26;100384.88;6115441;23;20001;-91
2023/10/03 03:09:23;;;;;;;8.45;4.03;;;;;;;10.94;71.50;100385.84;6138977;23;20067;-89
2023/10/03 03:11:49;;;;;;;7.18;3.63;;;;;;;10.90;71.68;100382.84;6116362;23;19997;-90
2023/10/03 03:14:15;;;;;;;9.32;4.28;;;;;;;10.89;71.84;100386.59;6113835;23;20432;-89
2023/10/03 03:16:42;;;;;;;12.18;4.13;;;;;;;10.77;71.81;100379.63;6137748;23;20112;-90
2023/10/03 03:19:08;;;;;;;12.10;4.57;;;;;;;10.71;72.14;100378.75;6162754;23;20340;-91
2023/10/03 03:21:34;;;;;;;8.73;4.32;;;;;;;10.66;72.31;100376.78;6138240;23;20111;-91
2023/10/03 03:24:08;;;;;;;8.93;3.83;;;;;;;10.67;72.13;100377.63;6137998;23;20009;-90
2023/10/03 03:26:36;;;;;;;14.45;4.20;;;;;;;10.59;72.23;100373.44;6140035;23;20084;-90
2023/10/03 03:29:06;;;;;;;8.32;3.75;;;;;;;10.50;72.40;100361.44;6114506;23;20012;-91
2023/10/03 03:31:32;;;;;;;9.25;4.32;;;;;;;10.52;72.60;100364.69;6139971;23;20009;-91
2023/10/03 03:34:00;;;;;;;9.23;4.10;;;;;;;10.54;72.86;100373.34;6113725;23;20085;-91
2023/10/03 03:36:34;;;;;;;9.27;4.32;;;;;;;10.45;72.62;100364.03;6187846;23;20072;-91
2023/10/03 03:39:05;;;;;;;8.95;4.85;;;;;;;10.44;72.75;100367.81;6164854;23;20001;-90
2023/10/03 03:41:30;;;;;;;8.45;4.15;;;;;;;10.37;73.10;100373.31;6139142;23;20071;-90
2023/10/03 03:43:59;;;;;;;10.52;4.32;;;;;;;10.39;73.07;100370.41;6114111;23;20000;-91
2023/10/03 03:46:26;;;;;;;10.18;4.32;;;;;;;10.31;73.04;100358.97;6164034;23;20008;-91
2023/10/03 03:48:52;;;;;;;11.65;5.10;;;;;;;10.34;73.44;100373.00;6138744;23;20061;-91
2023/10/03 03:51:18;;;;;;;10.52;4.47;;;;;;;10.28;73.57;100356.72;6162965;23;19993;-90
2023/10/03 03:53:44;;;;;;;7.72;4.28;;;;;;;10.30;73.60;100372.66;6114284;23;20047;-91
2023/10/03 03:56:12;;;;;;;7.47;4.22;;;;;;;10.30;73.50;100367.28;6137636;23;20452;-90
2023/10/03 03:58:44;;;;;;;8.88;3.60;;;;;;;10.27;73.69;100368.56;6139312;23;20005;-91
2023/10/03 04:01:18;;;;;;;11.02;4.70;;;;;;;10.34;73.21;100371.13;6165061;23;20005;-91
2023/10/03 04:03:45;;;;;;;8.57;4.72;;;;;;;10.37;73.39;100362.56;6164895;23;20039;-91
2023/10/03 04:06:32;;;;;;;8.27;4.30;;;;;;;10.38;73.39;100368.78;6163222;23;20001;-91
2023/10/03 04:09:00;;;;;;;9.05;4.20;;;;;;;10.23;73.36;100353.94;6169509;23;19997;-90
2023/10/03 04:11:26;;;;;;;11.68;4.90;;;;;;;10.22;73.48;100359.56;6161081;23;20004;-91
2023/10/03 04:13:55;;;;;;;10.32;5.05;;;;;;;10.25;73.86;100376.06;6137301;23;19997;-91
2023/10/03 04:16:28;;;;;;;10.63;3.97;;;;;;;10.16;74.10;100369.41;6163957;23;20011;-92
2023/10/03 04:19:12;;;;;;;8.40;4.20;;;;;;;10.22;74.02;100387.28;6117529;23;20339;-90
2023/10/03 04:21:40;;;;;;;9.93;4.32;;;;;;;10.02;73.91;100360.00;6167653;23;20005;-90
2023/10/03 04:24:10;;;;;;;7.15;4.25;;;;;;;10.09;73.96;100372.25;6119513;23;20001;-90
2023/10/03 04:26:39;;;;;;;15.23;5.10;;;;;;;10.19;73.64;100387.78;6144323;23;20001;-89
2023/10/03 04:29:07;;;;;;;8.73;4.93;;;;;;;10.05;73.68;100379.19;6118749;23;20007;-90
2023/10/03 04:31:35;;;;;;;9.65;4.57;;;;;;;10.19;73.31;100389.63;6146656;23;20008;-90
2023/10/03 04:34:00;;;;;;;8.57;4.25;;;;;;;10.04;73.30;100368.66;6144331;23;20005;-91
2023/10/03 04:36:32;;;;;;;16.25;4.82;;;;;;;10.09;73.69;100404.56;6141463;23;20020;-91
2023/10/03 04:38:59;;;;;;;9.07;4.57;;;;;;;9.98;73.69;100375.81;6145444;23;20012;-91
2023/10/03 04:41:31;;;;;;;13.90;4.78;;;;;;;10.04;73.15;100388.31;6116445;23;20005;-91
2023/10/03 04:43:57;;;;;;;;;;;;;;;10.19;73.68;100409.31;6120161;23;20075;-92
2023/10/03 04:46:27;;;;;;;12.18;4.13;;;;;;;9.94;73.72;100376.53;6193721;23;19935;-93
2023/10/03 04:49:01;;;;;;;11.07;4.97;;;;;;;9.95;73.75;100378.97;6142094;23;20005;-92
2023/10/03 04:51:28;;;;;;;13.75;5.13;;;;;;;9.92;74.10;100382.16;6120785;23;20005;-93
2023/10/03 04:53:53;;;;;;;9.38;5.15;;;;;;;9.97;73.93;100402.97;6141937;23;20004;-93
2023/10/03 04:56:24;;;;;;;14.05;5.85;;;;;;;10.09;73.79;100409.94;6166742;23;20064;-93
2023/10/03 04:58:55;;;;;;;10.25;4.68;;;;;;;10.21;73.58;100422.50;6143025;23;20001;-92
2023/10/03 05:01:26;;;;;;;15.18;6.32;;;;;;;10.07;73.62;100395.09;6115142;23;20002;-92
2023/10/03 05:03:54;;;;;;;64.18;35.92;;;;;;;10.19;73.33;100405.78;6115376;23;20012;-89
2023/10/03 05:07:06;;;;;;;11.73;5.35;;;;;;;10.32;73.69;100427.09;6116480;23;20001;-92
2023/10/03 05:10:17;;;;;;;11.25;5.00;;;;;;;10.20;73.57;100402.88;6148534;23;20005;-91
2023/10/03 05:13:06;;;;;;;22.30;4.97;;;;;;;10.43;73.14;100431.59;6161120;23;20000;-95
2023/10/03 05:16:25;;;;;;;9.60;4.88;;;;;;;10.48;73.23;100420.13;6062500;23;20248;-95
2023/10/03 05:29:28;;;;;;;11.85;5.10;;;;;;;10.67;72.63;100432.28;5933529;24;20005;-95
2023/10/03 05:36:18;;;;;;;17.95;5.75;;;;;;;10.78;72.34;100449.44;5990120;24;19981;-96
2023/10/03 05:39:26;;;;;;;23.40;16.02;;;;;;;10.56;72.40;100417.00;5945280;23;20004;-95
2023/10/03 05:46:38;;;;;;;;;;;;;;;;;;;;;
2023/10/03 05:49:12;;;;;;;11.57;5.15;;;;;;;11.13;71.11;100427.66;5961316;24;20039;-94
2023/10/03 05:51:59;;;;;;;25.02;6.38;;;;;;;11.22;70.62;100429.94;5939294;24;19989;-95
2023/10/03 06:02:04;;;;;;;15.55;4.97;;;;;;;11.68;69.30;100444.06;5933399;24;20041;-95
2023/10/03 06:04:49;;;;;;;14.75;6.25;;;;;;;11.72;69.33;100442.50;5908491;24;20048;-95
2023/10/03 06:14:38;;;;;;;;;;;;;;;;;;;;;
2023/10/03 06:17:19;;;;;;;19.38;11.27;;;;;;;12.22;67.35;100454.22;5914112;24;20032;-94
2023/10/03 06:19:47;;;;;;;12.68;4.20;;;;;;;12.25;66.81;100441.03;5881419;24;20005;-92
2023/10/03 06:22:13;;;;;;;12.52;4.47;;;;;;;12.34;66.82;100454.91;5972653;23;20020;-92
2023/10/03 06:28:18;;;;;;;9.05;3.90;;;;;;;12.72;65.98;100472.88;5931313;24;20388;-92
2023/10/03 06:30:47;;;;;;;13.10;4.47;;;;;;;12.56;65.86;100433.25;5934125;24;20043;-93
2023/10/03 06:33:20;;;;;;;12.75;5.25;;;;;;;12.76;65.23;100438.00;5998757;23;20003;-94
2023/10/03 06:35:59;;;;;;;13.48;5.07;;;;;;;12.82;65.23;100439.69;6035887;23;20094;-94
2023/10/03 06:38:31;;;;;;;16.85;5.50;;;;;;;12.99;64.28;100428.78;6057954;23;20002;-94
2023/10/03 06:40:57;;;;;;;10.02;3.70;;;;;;;13.30;62.84;100445.22;6031750;23;20010;-95
2023/10/03 06:47:25;;;;;;;;;;;;;;;;;;;;;
2023/10/03 06:49:58;;;;;;;22.75;5.63;;;;;;;13.77;62.43;100459.88;5924209;24;20024;-91
2023/10/03 06:52:35;;;;;;;;;;;;;;;;;;;;;
2023/10/03 06:55:16;;;;;;;8.45;4.43;;;;;;;14.05;60.74;100445.09;6063580;23;20026;-94
2023/10/03 06:57:47;;;;;;;13.18;7.13;;;;;;;14.00;60.78;100423.44;6045410;23;20002;-95
2023/10/03 07:04:27;;;;;;;12.07;4.00;;;;;;;14.09;60.85;100425.38;5933545;24;20434;-94
2023/10/03 07:07:21;;;;;;;9.50;3.90;;;;;;;14.29;59.67;100437.31;5870030;24;20444;-92
2023/10/03 07:09:56;;;;;;;7.72;3.67;;;;;;;14.38;59.54;100437.63;5886379;24;20016;-94
2023/10/03 07:12:29;;;;;;;17.23;4.18;;;;;;;14.49;59.45;100439.28;5911672;24;20005;-93
2023/10/03 07:15:28;;;;;;;;;;;;;;;;;;;;;
2023/10/03 07:18:14;;;;;;;;;;;;;;;;;;;;;
2023/10/03 07:20:40;;;;;;;17.67;7.78;;;;;;;14.71;59.52;100455.31;5935847;24;20027;-95
2023/10/03 07:23:44;;;;;;;;;;;;;;;;;;;;;
2023/10/03 07:27:19;;;;;;;;;;;;;;;;;;;;;
2023/10/03 07:30:16;;;;;;;7.75;3.65;;;;;;;15.30;57.90;100460.22;5971139;23;20459;-96
2023/10/03 07:32:51;;;;;;;12.10;4.72;;;;;;;15.43;57.34;100441.75;5984678;24;20013;-94
2023/10/03 07:35:36;;;;;;;5.78;3.13;;;;;;;15.71;56.27;100445.75;6097678;23;20008;-94
2023/10/03 07:45:14;;;;;;;8.30;3.67;;;;;;;16.23;54.53;100443.66;5988237;23;20003;-96
2023/10/03 07:48:05;;;;;;;;;;;;;;;16.42;54.15;100460.16;6033294;23;20026;-93
2023/10/03 07:51:53;;;;;;;14.63;5.35;;;;;;;16.42;53.73;100446.56;5994992;24;19910;-94
2023/10/03 07:54:41;;;;;;;;;;;;;;;;;;;;;
2023/10/03 07:57:27;;;;;;;7.88;2.88;;;;;;;16.66;52.11;100454.84;5976073;23;20008;-94
2023/10/03 08:00:37;;;;;;;;;;;;;;;;;;;;;
2023/10/03 08:03:28;;;;;;;45.67;27.73;;;;;;;17.19;52.60;100463.16;5906810;24;20021;-93
2023/10/03 08:06:38;;;;;;;48.75;29.52;;;;;;;17.23;52.06;100436.19;5922277;24;20017;-96
2023/10/03 08:09:26;;;;;;;;;;;;;;;;;;;;;
2023/10/03 08:16:08;;;;;;;13.25;4.70;;;;;;;17.86;49.72;100435.28;5919792;24;20016;-95
2023/10/03 08:18:52;;;;;;;9.93;3.67;;;;;;;18.17;49.06;100452.03;5916994;24;20076;-93
2023/10/03 08:21:33;;;;;;;7.80;3.00;;;;;;;18.26;47.45;100435.84;6027989;23;20013;-94
2023/10/03 08:33:04;;;;;;;23.70;4.20;;;;;;;18.86;44.86;100414.22;6169173;23;20022;-93
2023/10/03 08:38:27;;;;;;;7.93;2.78;;;;;;;19.18;42.54;100423.53;6121697;23;20005;-94
2023/10/03 08:40:55;;;;;;;8.35;3.28;;;;;;;19.34;42.08;100424.06;6121929;23;19998;-91
2023/10/03 08:43:41;;;;;;;8.95;3.13;;;;;;;19.52;40.97;100436.03;6116629;23;20016;-90
2023/10/03 08:46:09;;;;;;;14.70;3.58;;;;;;;19.44;40.10;100421.13;6166889;23;20072;-89
2023/10/03 08:48:50;;;;;;;10.82;3.35;;;;;;;19.27;40.42;100420.91;6117151;23;19997;-92
2023/10/03 08:51:20;;;;;;;8.27;3.08;;;;;;;19.29;40.49;100418.69;6124932;23;19997;-95
2023/10/03 08:54:08;;;;;;;7.35;2.70;;;;;;;19.38;40.84;100417.72;6148879;23;19997;-93
2023/10/03 08:56:47;;;;;;;13.23;3.30;;;;;;;19.40;42.17;100409.19;6154476;23;20024;-94
2023/10/03 08:59:16;;;;;;;10.82;4.00;;;;;;;19.52;42.38;100414.16;6088301;23;20039;-92
2023/10/03 09:02:28;;;;;;;10.57;4.25;;;;;;;19.71;42.94;100435.97;6061113;23;20338;-93
2023/10/03 09:05:15;;;;;;;13.68;4.90;;;;;;;19.52;43.01;100404.03;6088832;23;20002;-93
2023/10/03 09:07:47;;;;;;;7.57;4.50;;;;;;;19.63;42.91;100410.13;6086615;23;19987;-94
2023/10/03 09:13:30;;;;;;;8.07;2.80;;;;;;;19.87;41.88;100400.94;6044810;23;20105;-92
2023/10/03 09:16:55;;;;;;;;;;;;;;;;;;;;;
2023/10/03 09:19:49;;;;;;;12.32;3.70;;;;;;;20.23;42.05;100422.03;6024911;23;19995;-95
2023/10/03 09:22:58;;;;;;;12.65;3.88;;;;;;;19.98;41.63;100402.31;5976452;23;20351;-92
2023/10/03 09:25:28;;;;;;;9.40;3.88;;;;;;;20.31;41.90;100413.91;5998333;23;20014;-94
2023/10/03 09:28:04;;;;;;;7.53;3.13;;;;;;;20.38;41.72;100421.72;6006258;23;20027;-93
2023/10/03 09:30:42;;;;;;;16.17;5.22;;;;;;;20.34;42.23;100396.09;6006087;23;20039;-93
2023/10/03 09:33:28;;;;;;;10.15;4.55;;;;;;;20.47;41.46;100397.16;6010647;23;20075;-94
2023/10/03 09:36:02;;;;;;;8.02;3.38;;;;;;;20.49;40.33;100414.06;5985611;23;20003;-95
2023/10/03 09:38:55;;;;;;;9.75;3.67;;;;;;;20.29;40.67;100397.00;5984587;23;20014;-93
2023/10/03 09:44:33;;;;;;;17.23;4.75;;;;;;;20.56;40.58;100376.94;6032648;23;19997;-94
2023/10/03 09:47:06;;;;;;;8.88;4.32;;;;;;;20.79;40.50;100382.44;6117133;23;20043;-95
2023/10/03 09:49:39;;;;;;;11.52;5.45;;;;;;;20.83;39.36;100369.75;6116279;23;20109;-93
2023/10/03 09:52:36;;;;;;;7.65;3.30;;;;;;;20.71;40.56;100358.56;6148684;23;19997;-91
2023/10/03 09:55:34;;;;;;;10.68;5.32;;;;;;;20.70;40.20;100357.75;6097172;23;20012;-91
2023/10/03 09:58:00;;;;;;;7.07;3.35;;;;;;;20.73;39.72;100362.63;6094515;23;20141;-92
2023/10/03 10:00:39;;;;;;;9.52;3.55;;;;;;;20.87;39.26;100375.41;6068082;23;20002;-95
2023/10/03 10:03:19;;;;;;;14.80;4.32;;;;;;;20.76;39.90;100351.03;6117465;23;20010;-95
2023/10/03 10:06:31;;;;;;;7.97;3.25;;;;;;;21.00;39.89;100374.53;6067440;23;20459;-93
2023/10/03 10:09:23;;;;;;;13.63;7.65;;;;;;;20.79;39.21;100364.09;6087181;23;19998;-93
2023/10/03 10:21:51;;;;;;;10.20;3.17;;;;;;;21.00;38.50;100333.47;6016086;23;20019;-92
2023/10/03 10:24:28;;;;;;;8.50;3.35;;;;;;;20.93;38.41;100344.03;5921786;24;20024;-92
2023/10/03 10:31:24;;;;;;;10.23;3.20;;;;;;;21.15;37.75;100327.56;5968577;24;20024;-94
2023/10/03 10:33:57;;;;;;;9.90;3.92;;;;;;;21.14;38.13;100328.66;6027118;23;20022;-94
2023/10/03 10:36:28;;;;;;;10.70;3.83;;;;;;;21.28;38.63;100325.81;6055919;23;20377;-93
2023/10/03 10:39:03;;;;;;;10.35;4.93;;;;;;;21.52;38.12;100335.59;6039386;23;20009;-93
2023/10/03 10:41:42;;;;;;;6.90;3.70;;;;;;;21.48;37.92;100327.22;6062450;23;20085;-96
2023/10/03 10:44:09;;;;;;;12.65;3.53;;;;;;;21.62;37.61;100329.00;6092419;23;20006;-92
2023/10/03 10:46:38;;;;;;;11.25;3.80;;;;;;;21.58;36.98;100313.22;6111518;23;20002;-93
2023/10/03 10:49:44;;;;;;;7.57;3.25;;;;;;;21.52;36.96;100297.22;6061700;23;20017;-92
2023/10/03 10:52:13;;;;;;;11.98;4.10;;;;;;;21.64;37.07;100313.06;6107944;23;20141;-94
2023/10/03 10:54:41;;;;;;;13.35;4.65;;;;;;;21.50;36.72;100294.00;6061134;23;20013;-93
2023/10/03 10:57:46;;;;;;;10.35;3.75;;;;;;;21.61;36.01;100303.53;6067297;23;20413;-95
2023/10/03 11:00:21;;;;;;;7.75;3.30;;;;;;;21.58;35.50;100290.47;6140414;23;19997;-93
2023/10/03 11:02:59;;;;;;;13.85;3.97;;;;;;;21.72;35.86;100293.06;6117965;23;20012;-93
2023/10/03 11:08:46;;;;;;;9.93;3.67;;;;;;;21.47;35.48;100276.25;6163873;23;20079;-93
2023/10/03 11:12:10;;;;;;;;;;;;;;;;;;;;;
2023/10/03 11:14:42;;;;;;;6.70;3.50;;;;;;;21.60;34.29;100271.75;6129599;23;20032;-93
2023/10/03 11:17:07;;;;;;;7.30;3.72;;;;;;;21.61;34.66;100267.13;6116893;23;20010;-94
2023/10/03 11:19:33;;;;;;;8.95;3.83;;;;;;;21.74;35.34;100277.91;6117521;23;20013;-93
2023/10/03 11:21:59;;;;;;;10.32;3.50;;;;;;;21.61;34.37;100250.66;6116933;23;20009;-96
2023/10/03 11:24:26;;;;;;;9.38;4.18;;;;;;;21.74;34.88;100255.97;6117819;23;20029;-94
2023/10/03 11:26:57;;;;;;;10.68;4.45;;;;;;;21.91;35.40;100271.63;6115767;23;20001;-94
2023/10/03 11:29:45;;;;;;;8.32;3.28;;;;;;;21.90;34.13;100259.06;6165546;23;20032;-93
2023/10/03 11:32:23;;;;;;;6.88;3.83;;;;;;;21.97;33.62;100275.03;6139961;23;20014;-93
2023/10/03 11:38:11;;;;;;;7.65;3.38;;;;;;;22.00;33.26;100241.47;6151978;23;20444;-95
2023/10/03 11:40:47;;;;;;;9.15;3.85;;;;;;;22.05;32.96;100235.03;6172978;23;20033;-96
2023/10/03 11:43:15;;;;;;;10.40;3.83;;;;;;;22.09;33.38;100239.53;6142082;23;20012;-93
2023/10/03 11:45:50;;;;;;;9.57;3.85;;;;;;;22.02;32.95;100224.69;6116885;23;20002;-95
2023/10/03 11:48:34;;;;;;;11.65;3.45;;;;;;;21.81;33.34;100233.59;6117613;23;20001;-94
2023/10/03 11:51:19;;;;;;;10.05;3.85;;;;;;;21.92;32.93;100225.84;6118159;23;20028;-94
2023/10/03 11:56:57;;;;;;;8.80;3.90;;;;;;;22.03;34.01;100224.38;6167526;23;20039;-94
2023/10/03 11:59:25;;;;;;;10.27;4.85;;;;;;;22.09;33.98;100230.50;6118622;23;19997;-96
2023/10/03 12:01:56;;;;;;;9.23;4.68;;;;;;;22.14;34.43;100231.16;6119085;23;20009;-94
2023/10/03 12:04:31;;;;;;;7.57;4.07;;;;;;;22.25;33.97;100234.38;6141330;23;19997;-93
2023/10/03 12:06:57;;;;;;;12.27;4.28;;;;;;;22.27;33.23;100236.81;6140512;23;20005;-95
2023/10/03 12:10:16;;;;;;;;;;;;;;;;;;;;;
2023/10/03 12:16:46;;;;;;;9.13;5.35;;;;;;;22.31;32.57;100218.56;6086495;23;20019;-94
2023/10/03 12:19:43;;;;;;;10.20;4.40;;;;;;;22.38;32.25;100213.34;6045435;23;20059;-95
2023/10/03 12:22:13;;;;;;;10.15;4.53;;;;;;;22.31;32.27;100202.09;6033829;23;20019;-95
2023/10/03 12:24:55;;;;;;;14.02;6.20;;;;;;;22.40;32.10;100216.59;6055882;23;20056;-95
2023/10/03 12:27:29;;;;;;;;;;;;;;;22.37;31.57;100217.22;6089902;23;20012;-95
2023/10/03 12:30:04;;;;;;;9.32;4.40;;;;;;;22.13;31.57;100187.56;6145016;23;19912;-94
2023/10/03 12:32:41;;;;;;;10.18;3.95;;;;;;;22.18;31.95;100187.38;6088271;23;20033;-94
2023/10/03 12:35:14;;;;;;;10.15;4.00;;;;;;;22.32;31.40;100209.97;6065888;23;20029;-91
2023/10/03 12:37:53;;;;;;;19.67;5.28;;;;;;;22.09;30.50;100175.63;6061155;23;20078;-92
2023/10/03 12:40:19;;;;;;;8.52;5.07;;;;;;;22.23;30.67;100178.19;6062838;23;20022;-93
2023/10/03 12:42:51;;;;;;;11.70;6.35;;;;;;;22.32;31.17;100182.53;6056531;23;20034;-92
2023/10/03 12:45:20;;;;;;;12.25;6.68;;;;;;;22.26;31.29;100167.38;6085463;23;20002;-92
2023/10/03 12:47:49;;;;;;;15.70;6.45;;;;;;;22.38;31.11;100177.69;6059743;23;20008;-92
2023/10/03 12:50:21;;;;;;;10.48;4.72;;;;;;;22.47;31.18;100192.16;6086469;23;20014;-93
2023/10/03 12:52:49;;;;;;;15.07;6.65;;;;;;;22.49;30.97;100189.91;6106219;23;20071;-94
2023/10/03 12:55:20;;;;;;;14.57;5.20;;;;;;;22.37;30.36;100162.34;6081411;23;20006;-93
2023/10/03 12:57:50;;;;;;;;;;;;;;;22.50;31.49;100177.81;6131806;23;20001;-94
2023/10/03 13:00:33;;;;;;;11.80;4.40;;;;;;;22.28;30.63;100150.59;6140254;23;19994;-94
2023/10/03 13:03:04;;;;;;;10.27;4.20;;;;;;;22.37;30.89;100167.81;6058204;23;20010;-95
2023/10/03 13:05:30;;;;;;;;;;;;;;;22.40;30.39;100169.94;6080858;23;20031;-94
2023/10/03 13:08:08;;;;;;;;;;;;;;;;;;;;;
2023/10/03 13:10:41;;;;;;;9.50;4.35;;;;;;;22.24;30.13;100142.22;6083572;23;20033;-93
2023/10/03 13:14:09;;;;;;;;;;;;;;;;;;;;;
2023/10/03 13:30:38;;;;;;;11.77;4.18;;;;;;;22.28;30.37;100128.66;6233067;22;20024;-96
2023/10/03 13:33:13;;;;;;;9.18;4.28;;;;;;;22.38;30.47;100128.28;6158076;23;20023;-95
2023/10/03 13:35:39;;;;;;;9.30;4.57;;;;;;;22.28;30.49;100120.44;6187809;23;19996;-95
2023/10/03 13:50:47;;;;;;;;;;;;;;;;;;;;;
2023/10/03 14:03:46;;;;;;;11.23;4.97;;;;;;;22.45;30.88;100120.34;6021228;23;20067;-93
2023/10/03 14:06:21;;;;;;;11.55;4.97;;;;;;;22.48;31.28;100127.13;5972033;23;20010;-94
2023/10/03 14:08:59;;;;;;;10.50;4.53;;;;;;;22.45;30.73;100119.53;5998147;23;19991;-94
2023/10/03 14:22:07;;;;;;;10.38;4.53;;;;;;;22.48;30.68;100088.72;5935112;24;20010;-94
2023/10/03 14:24:34;;;;;;;11.57;4.90;;;;;;;22.46;30.71;100099.22;5887897;24;20080;-94
2023/10/03 14:27:00;;;;;;;10.98;4.60;;;;;;;22.64;30.67;100122.69;5964263;23;20010;-94
2023/10/03 14:29:26;;;;;;;9.68;4.93;;;;;;;22.46;30.82;100093.72;6000850;23;20029;-94
2023/10/03 14:31:52;;;;;;;11.50;5.03;;;;;;;22.45;30.70;100106.63;6088168;23;20025;-93
2023/10/03 14:34:21;;;;;;;16.15;4.70;;;;;;;22.48;30.40;100119.69;6083392;23;20029;-94
2023/10/03 14:36:54;;;;;;;8.57;4.50;;;;;;;22.45;30.72;100123.09;6121541;23;20406;-93
2023/10/03 14:39:29;;;;;;;15.15;5.60;;;;;;;22.26;30.44;100098.00;6173390;23;20072;-93
2023/10/03 14:42:00;;;;;;;11.32;4.97;;;;;;;22.28;30.98;100109.44;6148599;23;20071;-93
2023/10/03 14:44:29;;;;;;;11.75;4.80;;;;;;;22.33;30.18;100114.75;6148256;23;20066;-93
2023/10/03 14:47:48;;;;;;;10.68;4.75;;;;;;;22.25;30.84;100118.34;6145712;23;20068;-91
2023/10/03 14:50:27;;;;;;;15.05;6.13;;;;;;;21.91;30.60;100095.34;6136450;23;20033;-94
2023/10/03 14:52:53;;;;;;;13.13;5.18;;;;;;;22.03;31.25;100117.41;6135388;23;20036;-90
2023/10/03 14:55:22;;;;;;;9.40;4.80;;;;;;;21.99;31.12;100113.72;6085596;23;20017;-91
2023/10/03 14:57:49;;;;;;;11.98;4.88;;;;;;;21.92;31.30;100116.16;6089208;23;20454;-90